Flight Number: EUR2373 Duration: 2:15
Departure: Copenhagen Kastrup (EKCH) at 18:15 Distance: 823 Nm
Arrival: Bordeaux-Merignac (LFBD) at 20:30 Equipment: A321

Weather Information
Koebenhavn / Kastrup, Denmark (EKCH) 55-37N 012-39E 5M May 23, 2018 - 08:20 PM EDT / 2018.05.24 0020 UTC
Wind: from the SE (140 degrees) at 7 MPH (6 KT):0
Visibility: greater than 7 mile(s):0 Temperature: 57 F (14 C) Dew Point: 53 F (12 C) Relative Humidity: 87% Pressure (altimeter): 30.36 in. Hg (1028 hPa)
ob: EKCH 240020Z 14006KT CAVOK 14/12 Q1028 NOSIG cycle: 0
Sunrise: 02:48 Sunset: 19:24 (UTC)

Bordeaux / Merignac, France (LFBD) 44-50N 000-42W 61M May 23, 2018 - 08:30 PM EDT / 2018.05.24 0030 UTC
Wind: Calm:0
Visibility: greater than 7 mile(s):0 Weather: patches of fog Temperature: 59 F (15 C) Dew Point: 55 F (13 C) Relative Humidity: 87% Pressure (altimeter): 30.00 in. Hg (1016 hPa)
ob: LFBD 240030Z AUTO 00000KT 9999 0450 R23/P2300 R05/0550D R29/P2300 BCFG NSC 15/13 Q1016 TEMPO 0800 BCFG cycle: 0
Sunrise: 04:28 Sunset: 19:30 (UTC)

TAF:2018/05/23 18:21 TAF TAF LFBD 231700Z 2318/2424 34008KT CAVOK BECMG 2405/2407 16010KT TEMPO 2405/2412 4000 SHRA BKN040 PROB30 2408/2412 2000 TSRA BKN030CB BECMG 2414/2416 34010KT PROB30 TEMPO 2422/2424 4000 SHRA BKN040TCU

Previous Pireps for this route
Date Aircraft Flight time Fuel used Landing rate On time
2015-03-31A32102.2915195-159Yes
2015-05-07A32102.2814305-39Yes
2016-04-30A32102.1913634-303Yes
(pireps marked green are flown by you)

Route map